San Diego, CA

5:24 AM PST on February 10, 2016 (GMT -0800)
San Diego International-Lindbergh | | Change Station
CLOSE
Current Station
Airport
Location: San Diego,
Elevation: 30 ft
Nearby Weather Stations

Elev 30 ft 32.73 °N, 117.18 °W | Updated 33 minutes ago

Clear
Clear
60 °F
Feels Like 60 °F
N
0
Wind Variable Wind from North

Today
High -- | Low -- °F
--% Chance of Precip.
Yesterday
High -- | Low -- °F
Precip. -- in
Pressure 30.12 in
Visibility 10.0 miles
Clouds Few 25000 ft
Dew Point 33 °F
Humidity 36%
Rainfall 0.00 in
Snow Depth Not available.
6:36 AM 5:29 PM
Waxing Crescent, 5% visible
METAR KSAN 101251Z 00000KT 10SM FEW250 16/01 A3012 RMK AO2 SLP198 T01560006
Pressure 30.12 in
Visibility 10.0 miles
Clouds Few 25000 ft
Dew Point 33 °F
Humidity 36%
Rainfall 0.00 in
Snow Depth Not available.
6:36 AM 5:29 PM
Waxing Crescent, 5% visible
METAR KSAN 101251Z 00000KT 10SM FEW250 16/01 A3012 RMK AO2 SLP198 T01560006

10-Day Weather Forecast

Almanac

Astronomy

Feb. 10, 2016 Rise Set
Actual Time
Civil Twilight
Nautical Twilight
Astronomical Twilight
Moon
Length of Visible Light
Length of Day
Tomorrow will be .
, % of the Moon is Illuminated

Today's Extremes

State Highs State Lows

Community

WunderPhotos

Upload Photos

1,891,840 photos uploaded!

WunderBlog® & News

Nearby

Air Quality

  Air Quality AQ Index Pollutant
Not available.

Snow Depth

Station Depth Elevation

Earthquake Activity

City Distance Mag. Time & Date
Minimum magnitude displayed is 2.5.

Coastal Water Temperatures

Place Temperature

Stations

Nearby Weather Stations

Station Location Temp. Windchill Dew Point Humidity Wind Precip. Elev Updated Type
                   

Watches & Warnings

There are currently no watches in effect.